sensor_id;sensor_type;location;lat;lon;timestamp;P1;durP1;ratioP1;P2;durP2;ratioP2
56171;SDS011;42052;41.634;-0.946;2023-02-16T00:02:29;4.20;;;3.15;;
56171;SDS011;42052;41.634;-0.946;2023-02-16T00:08:08;4.57;;;3.20;;
56171;SDS011;42052;41.634;-0.946;2023-02-16T00:10:54;5.03;;;3.28;;
56171;SDS011;42052;41.634;-0.946;2023-02-16T00:13:59;4.28;;;2.78;;
56171;SDS011;42052;41.634;-0.946;2023-02-16T00:16:46;4.90;;;3.05;;
56171;SDS011;42052;41.634;-0.946;2023-02-16T00:19:33;4.25;;;3.25;;
56171;SDS011;42052;41.634;-0.946;2023-02-16T00:22:21;5.15;;;3.30;;
56171;SDS011;42052;41.634;-0.946;2023-02-16T00:25:07;4.13;;;3.00;;
56171;SDS011;42052;41.634;-0.946;2023-02-16T00:27:54;4.13;;;3.20;;
56171;SDS011;42052;41.634;-0.946;2023-02-16T00:30:40;4.07;;;3.00;;
56171;SDS011;42052;41.634;-0.946;2023-02-16T00:33:26;4.25;;;3.15;;
56171;SDS011;42052;41.634;-0.946;2023-02-16T00:36:13;5.15;;;3.22;;
56171;SDS011;42052;41.634;-0.946;2023-02-16T00:38:59;4.68;;;3.10;;
56171;SDS011;42052;41.634;-0.946;2023-02-16T00:41:46;5.55;;;3.78;;
56171;SDS011;42052;41.634;-0.946;2023-02-16T00:44:38;5.47;;;3.38;;
56171;SDS011;42052;41.634;-0.946;2023-02-16T00:53:04;4.55;;;3.47;;
56171;SDS011;42052;41.634;-0.946;2023-02-16T00:55:44;4.03;;;3.10;;
56171;SDS011;42052;41.634;-0.946;2023-02-16T00:58:30;3.88;;;3.20;;
56171;SDS011;42052;41.634;-0.946;2023-02-16T01:01:18;6.05;;;3.15;;
56171;SDS011;42052;41.634;-0.946;2023-02-16T01:04:07;5.18;;;3.50;;
56171;SDS011;42052;41.634;-0.946;2023-02-16T01:07:05;4.18;;;3.45;;
56171;SDS011;42052;41.634;-0.946;2023-02-16T01:10:16;4.68;;;3.38;;
56171;SDS011;42052;41.634;-0.946;2023-02-16T01:13:25;4.65;;;3.10;;
56171;SDS011;42052;41.634;-0.946;2023-02-16T01:16:15;5.45;;;3.50;;
56171;SDS011;42052;41.634;-0.946;2023-02-16T01:19:06;5.07;;;3.40;;
56171;SDS011;42052;41.634;-0.946;2023-02-16T01:21:54;3.50;;;2.88;;
56171;SDS011;42052;41.634;-0.946;2023-02-16T01:24:40;4.05;;;3.30;;
56171;SDS011;42052;41.634;-0.946;2023-02-16T01:27:27;4.35;;;3.42;;
56171;SDS011;42052;41.634;-0.946;2023-02-16T01:30:14;4.13;;;3.50;;
56171;SDS011;42052;41.634;-0.946;2023-02-16T01:33:02;5.00;;;3.47;;
56171;SDS011;42052;41.634;-0.946;2023-02-16T01:35:48;4.07;;;3.35;;
56171;SDS011;42052;41.634;-0.946;2023-02-16T01:38:36;5.45;;;3.47;;
56171;SDS011;42052;41.634;-0.946;2023-02-16T01:41:45;5.38;;;3.42;;
56171;SDS011;42052;41.634;-0.946;2023-02-16T01:47:33;4.95;;;3.35;;
56171;SDS011;42052;41.634;-0.946;2023-02-16T01:50:31;8.45;;;3.70;;
56171;SDS011;42052;41.634;-0.946;2023-02-16T01:53:28;4.60;;;3.53;;
56171;SDS011;42052;41.634;-0.946;2023-02-16T01:56:28;6.22;;;3.65;;
56171;SDS011;42052;41.634;-0.946;2023-02-16T02:02:18;5.38;;;3.72;;
56171;SDS011;42052;41.634;-0.946;2023-02-16T02:05:23;5.47;;;3.83;;
56171;SDS011;42052;41.634;-0.946;2023-02-16T02:11:17;6.25;;;3.70;;
56171;SDS011;42052;41.634;-0.946;2023-02-16T02:17:02;4.63;;;3.60;;
56171;SDS011;42052;41.634;-0.946;2023-02-16T02:20:01;5.22;;;3.80;;
56171;SDS011;42052;41.634;-0.946;2023-02-16T02:23:01;5.38;;;3.40;;
56171;SDS011;42052;41.634;-0.946;2023-02-16T02:33:01;3.88;;;3.25;;
56171;SDS011;42052;41.634;-0.946;2023-02-16T02:35:57;6.22;;;3.70;;
56171;SDS011;42052;41.634;-0.946;2023-02-16T02:44:52;5.38;;;3.22;;
56171;SDS011;42052;41.634;-0.946;2023-02-16T02:47:42;5.32;;;3.28;;
56171;SDS011;42052;41.634;-0.946;2023-02-16T02:50:40;6.13;;;3.10;;
56171;SDS011;42052;41.634;-0.946;2023-02-16T02:53:52;3.88;;;3.45;;
56171;SDS011;42052;41.634;-0.946;2023-02-16T03:00:33;5.00;;;3.30;;
56171;SDS011;42052;41.634;-0.946;2023-02-16T03:03:31;4.28;;;3.38;;
56171;SDS011;42052;41.634;-0.946;2023-02-16T03:06:23;4.60;;;3.28;;
56171;SDS011;42052;41.634;-0.946;2023-02-16T03:09:14;4.47;;;3.28;;
56171;SDS011;42052;41.634;-0.946;2023-02-16T03:12:01;4.35;;;3.28;;
56171;SDS011;42052;41.634;-0.946;2023-02-16T03:15:08;4.97;;;3.60;;
56171;SDS011;42052;41.634;-0.946;2023-02-16T03:17:55;5.28;;;3.80;;
56171;SDS011;42052;41.634;-0.946;2023-02-16T03:21:01;5.10;;;3.72;;
56171;SDS011;42052;41.634;-0.946;2023-02-16T03:24:08;5.15;;;3.72;;
56171;SDS011;42052;41.634;-0.946;2023-02-16T03:27:23;4.68;;;3.60;;
56171;SDS011;42052;41.634;-0.946;2023-02-16T03:30:30;4.85;;;3.72;;
56171;SDS011;42052;41.634;-0.946;2023-02-16T03:33:16;5.45;;;3.70;;
56171;SDS011;42052;41.634;-0.946;2023-02-16T03:36:03;4.72;;;3.97;;
56171;SDS011;42052;41.634;-0.946;2023-02-16T03:38:51;5.07;;;3.72;;
56171;SDS011;42052;41.634;-0.946;2023-02-16T03:41:40;5.60;;;3.97;;
56171;SDS011;42052;41.634;-0.946;2023-02-16T03:44:37;6.30;;;4.03;;
56171;SDS011;42052;41.634;-0.946;2023-02-16T03:47:23;6.18;;;3.97;;
56171;SDS011;42052;41.634;-0.946;2023-02-16T03:50:09;5.88;;;4.20;;
56171;SDS011;42052;41.634;-0.946;2023-02-16T03:52:55;4.28;;;3.88;;
56171;SDS011;42052;41.634;-0.946;2023-02-16T03:55:50;5.78;;;4.40;;
56171;SDS011;42052;41.634;-0.946;2023-02-16T03:58:37;5.55;;;4.30;;
56171;SDS011;42052;41.634;-0.946;2023-02-16T04:01:23;4.90;;;4.10;;
56171;SDS011;42052;41.634;-0.946;2023-02-16T04:04:10;5.60;;;4.30;;
56171;SDS011;42052;41.634;-0.946;2023-02-16T04:06:56;4.75;;;3.80;;
56171;SDS011;42052;41.634;-0.946;2023-02-16T04:09:42;4.70;;;4.10;;
56171;SDS011;42052;41.634;-0.946;2023-02-16T04:12:28;6.40;;;4.05;;
56171;SDS011;42052;41.634;-0.946;2023-02-16T04:15:24;5.75;;;3.88;;
56171;SDS011;42052;41.634;-0.946;2023-02-16T04:18:13;5.65;;;4.10;;
56171;SDS011;42052;41.634;-0.946;2023-02-16T04:20:59;5.35;;;4.18;;
56171;SDS011;42052;41.634;-0.946;2023-02-16T04:23:45;6.70;;;4.13;;
56171;SDS011;42052;41.634;-0.946;2023-02-16T04:26:31;5.18;;;3.92;;
56171;SDS011;42052;41.634;-0.946;2023-02-16T04:29:18;7.20;;;4.35;;
56171;SDS011;42052;41.634;-0.946;2023-02-16T04:32:04;5.88;;;4.20;;
56171;SDS011;42052;41.634;-0.946;2023-02-16T04:34:50;6.15;;;4.10;;
56171;SDS011;42052;41.634;-0.946;2023-02-16T04:37:36;5.28;;;4.00;;
56171;SDS011;42052;41.634;-0.946;2023-02-16T04:40:23;6.60;;;4.03;;
56171;SDS011;42052;41.634;-0.946;2023-02-16T04:43:09;6.30;;;4.15;;
56171;SDS011;42052;41.634;-0.946;2023-02-16T04:45:56;5.70;;;4.10;;
56171;SDS011;42052;41.634;-0.946;2023-02-16T04:48:42;7.28;;;4.10;;
56171;SDS011;42052;41.634;-0.946;2023-02-16T04:51:28;5.93;;;4.18;;
56171;SDS011;42052;41.634;-0.946;2023-02-16T04:54:14;4.90;;;4.22;;
56171;SDS011;42052;41.634;-0.946;2023-02-16T04:57:00;5.95;;;4.50;;
56171;SDS011;42052;41.634;-0.946;2023-02-16T04:59:46;5.00;;;4.07;;
56171;SDS011;42052;41.634;-0.946;2023-02-16T05:02:32;4.25;;;3.65;;
56171;SDS011;42052;41.634;-0.946;2023-02-16T05:05:18;4.78;;;3.80;;
56171;SDS011;42052;41.634;-0.946;2023-02-16T05:08:04;6.55;;;4.10;;
56171;SDS011;42052;41.634;-0.946;2023-02-16T05:10:51;6.20;;;3.75;;
56171;SDS011;42052;41.634;-0.946;2023-02-16T05:13:56;7.97;;;3.80;;
56171;SDS011;42052;41.634;-0.946;2023-02-16T05:17:01;4.43;;;3.60;;
56171;SDS011;42052;41.634;-0.946;2023-02-16T05:19:57;5.18;;;3.78;;
56171;SDS011;42052;41.634;-0.946;2023-02-16T05:22:44;5.32;;;3.80;;
56171;SDS011;42052;41.634;-0.946;2023-02-16T05:25:30;4.93;;;3.60;;
56171;SDS011;42052;41.634;-0.946;2023-02-16T05:28:16;6.00;;;3.95;;
56171;SDS011;42052;41.634;-0.946;2023-02-16T05:31:02;4.63;;;3.47;;
56171;SDS011;42052;41.634;-0.946;2023-02-16T05:33:49;4.10;;;3.67;;
56171;SDS011;42052;41.634;-0.946;2023-02-16T05:36:35;4.75;;;3.85;;
56171;SDS011;42052;41.634;-0.946;2023-02-16T05:39:21;5.15;;;3.45;;
56171;SDS011;42052;41.634;-0.946;2023-02-16T05:42:08;5.05;;;4.03;;
56171;SDS011;42052;41.634;-0.946;2023-02-16T05:44:54;4.43;;;3.60;;
56171;SDS011;42052;41.634;-0.946;2023-02-16T05:47:40;5.78;;;3.50;;
56171;SDS011;42052;41.634;-0.946;2023-02-16T05:50:26;5.47;;;3.50;;
56171;SDS011;42052;41.634;-0.946;2023-02-16T05:53:12;5.28;;;3.97;;
56171;SDS011;42052;41.634;-0.946;2023-02-16T05:55:58;4.13;;;3.60;;
56171;SDS011;42052;41.634;-0.946;2023-02-16T05:58:45;4.30;;;3.58;;
56171;SDS011;42052;41.634;-0.946;2023-02-16T06:01:31;4.53;;;3.70;;
56171;SDS011;42052;41.634;-0.946;2023-02-16T06:04:18;5.07;;;3.90;;
56171;SDS011;42052;41.634;-0.946;2023-02-16T06:07:04;5.68;;;3.60;;
56171;SDS011;42052;41.634;-0.946;2023-02-16T06:09:50;4.15;;;3.60;;
56171;SDS011;42052;41.634;-0.946;2023-02-16T06:12:36;7.30;;;3.97;;
56171;SDS011;42052;41.634;-0.946;2023-02-16T06:15:22;6.05;;;4.30;;
56171;SDS011;42052;41.634;-0.946;2023-02-16T06:18:09;4.88;;;4.10;;
56171;SDS011;42052;41.634;-0.946;2023-02-16T06:20:56;5.93;;;4.05;;
56171;SDS011;42052;41.634;-0.946;2023-02-16T06:23:42;5.10;;;3.85;;
56171;SDS011;42052;41.634;-0.946;2023-02-16T06:26:28;5.32;;;4.25;;
56171;SDS011;42052;41.634;-0.946;2023-02-16T06:29:14;5.93;;;3.80;;
56171;SDS011;42052;41.634;-0.946;2023-02-16T06:32:00;7.07;;;4.40;;
56171;SDS011;42052;41.634;-0.946;2023-02-16T06:34:47;6.18;;;4.50;;
56171;SDS011;42052;41.634;-0.946;2023-02-16T06:37:33;5.80;;;4.28;;
56171;SDS011;42052;41.634;-0.946;2023-02-16T06:40:19;7.40;;;4.13;;
56171;SDS011;42052;41.634;-0.946;2023-02-16T06:43:06;9.07;;;4.40;;
56171;SDS011;42052;41.634;-0.946;2023-02-16T06:45:52;5.30;;;3.90;;
56171;SDS011;42052;41.634;-0.946;2023-02-16T06:48:38;6.85;;;4.25;;
56171;SDS011;42052;41.634;-0.946;2023-02-16T06:51:24;4.65;;;4.00;;
56171;SDS011;42052;41.634;-0.946;2023-02-16T06:54:11;6.70;;;4.13;;
56171;SDS011;42052;41.634;-0.946;2023-02-16T06:56:57;7.65;;;4.00;;
56171;SDS011;42052;41.634;-0.946;2023-02-16T06:59:43;5.88;;;4.20;;
56171;SDS011;42052;41.634;-0.946;2023-02-16T07:02:29;7.15;;;4.10;;
56171;SDS011;42052;41.634;-0.946;2023-02-16T07:05:16;7.35;;;4.13;;
56171;SDS011;42052;41.634;-0.946;2023-02-16T07:08:02;5.25;;;4.10;;
56171;SDS011;42052;41.634;-0.946;2023-02-16T07:10:48;6.88;;;4.40;;
56171;SDS011;42052;41.634;-0.946;2023-02-16T07:13:34;6.82;;;3.78;;
56171;SDS011;42052;41.634;-0.946;2023-02-16T07:16:21;6.45;;;4.30;;
56171;SDS011;42052;41.634;-0.946;2023-02-16T07:19:07;5.57;;;4.00;;
56171;SDS011;42052;41.634;-0.946;2023-02-16T07:21:53;6.03;;;3.80;;
56171;SDS011;42052;41.634;-0.946;2023-02-16T07:24:39;5.13;;;4.10;;
56171;SDS011;42052;41.634;-0.946;2023-02-16T07:27:26;6.43;;;4.28;;
56171;SDS011;42052;41.634;-0.946;2023-02-16T07:30:12;5.25;;;4.03;;
56171;SDS011;42052;41.634;-0.946;2023-02-16T07:33:00;5.70;;;4.40;;
56171;SDS011;42052;41.634;-0.946;2023-02-16T07:35:46;5.55;;;4.20;;
56171;SDS011;42052;41.634;-0.946;2023-02-16T07:38:34;6.38;;;4.38;;
56171;SDS011;42052;41.634;-0.946;2023-02-16T07:41:21;5.82;;;4.47;;
56171;SDS011;42052;41.634;-0.946;2023-02-16T07:44:07;8.23;;;4.80;;
56171;SDS011;42052;41.634;-0.946;2023-02-16T07:46:53;5.15;;;4.32;;
56171;SDS011;42052;41.634;-0.946;2023-02-16T07:49:40;7.13;;;4.55;;
56171;SDS011;42052;41.634;-0.946;2023-02-16T07:52:26;7.97;;;4.30;;
56171;SDS011;42052;41.634;-0.946;2023-02-16T07:55:15;5.75;;;4.25;;
56171;SDS011;42052;41.634;-0.946;2023-02-16T07:58:01;5.53;;;4.28;;
56171;SDS011;42052;41.634;-0.946;2023-02-16T08:00:49;7.50;;;4.22;;
56171;SDS011;42052;41.634;-0.946;2023-02-16T08:03:35;5.90;;;4.20;;
56171;SDS011;42052;41.634;-0.946;2023-02-16T08:06:22;5.47;;;4.38;;
56171;SDS011;42052;41.634;-0.946;2023-02-16T08:09:08;5.25;;;3.83;;
56171;SDS011;42052;41.634;-0.946;2023-02-16T08:11:54;6.78;;;4.82;;
56171;SDS011;42052;41.634;-0.946;2023-02-16T08:14:40;6.47;;;4.30;;
56171;SDS011;42052;41.634;-0.946;2023-02-16T08:17:26;7.28;;;4.22;;
56171;SDS011;42052;41.634;-0.946;2023-02-16T08:20:13;8.57;;;4.60;;
56171;SDS011;42052;41.634;-0.946;2023-02-16T08:22:59;5.13;;;4.05;;
56171;SDS011;42052;41.634;-0.946;2023-02-16T08:25:45;6.40;;;4.57;;
56171;SDS011;42052;41.634;-0.946;2023-02-16T08:28:31;6.20;;;4.68;;
56171;SDS011;42052;41.634;-0.946;2023-02-16T08:31:18;6.82;;;4.60;;
56171;SDS011;42052;41.634;-0.946;2023-02-16T08:34:07;7.65;;;4.30;;
56171;SDS011;42052;41.634;-0.946;2023-02-16T08:36:54;7.82;;;5.00;;
56171;SDS011;42052;41.634;-0.946;2023-02-16T08:39:41;9.38;;;4.85;;
56171;SDS011;42052;41.634;-0.946;2023-02-16T08:42:27;6.25;;;4.55;;
56171;SDS011;42052;41.634;-0.946;2023-02-16T08:45:13;7.05;;;4.78;;
56171;SDS011;42052;41.634;-0.946;2023-02-16T08:48:00;7.63;;;5.13;;
56171;SDS011;42052;41.634;-0.946;2023-02-16T08:50:47;8.23;;;5.45;;
56171;SDS011;42052;41.634;-0.946;2023-02-16T08:53:39;6.35;;;5.20;;
56171;SDS011;42052;41.634;-0.946;2023-02-16T08:56:25;7.90;;;5.63;;
56171;SDS011;42052;41.634;-0.946;2023-02-16T08:59:14;8.05;;;6.20;;
56171;SDS011;42052;41.634;-0.946;2023-02-16T09:02:01;7.45;;;5.65;;
56171;SDS011;42052;41.634;-0.946;2023-02-16T09:04:48;10.48;;;5.65;;
56171;SDS011;42052;41.634;-0.946;2023-02-16T09:07:35;8.73;;;6.22;;
56171;SDS011;42052;41.634;-0.946;2023-02-16T09:10:21;9.68;;;6.10;;
56171;SDS011;42052;41.634;-0.946;2023-02-16T09:13:08;8.73;;;6.45;;
56171;SDS011;42052;41.634;-0.946;2023-02-16T09:16:04;9.52;;;6.25;;
56171;SDS011;42052;41.634;-0.946;2023-02-16T09:18:52;7.47;;;6.38;;
56171;SDS011;42052;41.634;-0.946;2023-02-16T09:21:39;8.95;;;6.82;;
56171;SDS011;42052;41.634;-0.946;2023-02-16T09:24:26;11.07;;;7.43;;
56171;SDS011;42052;41.634;-0.946;2023-02-16T09:27:12;10.52;;;7.38;;
56171;SDS011;42052;41.634;-0.946;2023-02-16T09:29:58;10.73;;;7.95;;
56171;SDS011;42052;41.634;-0.946;2023-02-16T09:32:44;10.93;;;7.70;;
56171;SDS011;42052;41.634;-0.946;2023-02-16T09:35:30;6.53;;;5.30;;
56171;SDS011;42052;41.634;-0.946;2023-02-16T09:38:17;6.20;;;4.13;;
56171;SDS011;42052;41.634;-0.946;2023-02-16T09:47:13;8.85;;;6.80;;
56171;SDS011;42052;41.634;-0.946;2023-02-16T09:50:21;11.85;;;7.85;;
56171;SDS011;42052;41.634;-0.946;2023-02-16T09:53:19;8.70;;;6.60;;
56171;SDS011;42052;41.634;-0.946;2023-02-16T10:02:47;10.50;;;7.68;;
56171;SDS011;42052;41.634;-0.946;2023-02-16T10:08:40;10.80;;;8.48;;
56171;SDS011;42052;41.634;-0.946;2023-02-16T10:14:43;12.13;;;9.07;;
56171;SDS011;42052;41.634;-0.946;2023-02-16T10:20:22;13.68;;;9.50;;
56171;SDS011;42052;41.634;-0.946;2023-02-16T10:29:28;11.98;;;9.40;;
56171;SDS011;42052;41.634;-0.946;2023-02-16T10:35:12;9.85;;;6.57;;
56171;SDS011;42052;41.634;-0.946;2023-02-16T10:38:03;5.28;;;4.40;;
56171;SDS011;42052;41.634;-0.946;2023-02-16T10:41:00;11.32;;;7.78;;
56171;SDS011;42052;41.634;-0.946;2023-02-16T10:43:49;11.80;;;8.35;;
56171;SDS011;42052;41.634;-0.946;2023-02-16T10:46:42;10.30;;;7.45;;
56171;SDS011;42052;41.634;-0.946;2023-02-16T10:49:31;6.07;;;5.05;;
56171;SDS011;42052;41.634;-0.946;2023-02-16T10:52:20;12.20;;;8.00;;
56171;SDS011;42052;41.634;-0.946;2023-02-16T10:55:07;11.27;;;8.48;;
56171;SDS011;42052;41.634;-0.946;2023-02-16T10:58:00;12.23;;;8.45;;
56171;SDS011;42052;41.634;-0.946;2023-02-16T11:03:37;10.45;;;8.23;;
56171;SDS011;42052;41.634;-0.946;2023-02-16T11:06:31;11.40;;;8.32;;
56171;SDS011;42052;41.634;-0.946;2023-02-16T11:09:18;10.57;;;8.35;;
56171;SDS011;42052;41.634;-0.946;2023-02-16T11:12:23;12.05;;;8.82;;
56171;SDS011;42052;41.634;-0.946;2023-02-16T11:18:02;6.10;;;4.88;;
56171;SDS011;42052;41.634;-0.946;2023-02-16T11:20:52;5.82;;;4.40;;
56171;SDS011;42052;41.634;-0.946;2023-02-16T11:23:40;8.45;;;6.70;;
56171;SDS011;42052;41.634;-0.946;2023-02-16T11:26:28;10.15;;;6.95;;
56171;SDS011;42052;41.634;-0.946;2023-02-16T11:29:18;9.77;;;6.85;;
56171;SDS011;42052;41.634;-0.946;2023-02-16T11:32:08;9.57;;;7.72;;
56171;SDS011;42052;41.634;-0.946;2023-02-16T11:34:56;10.98;;;7.45;;
56171;SDS011;42052;41.634;-0.946;2023-02-16T11:37:43;11.50;;;7.55;;
56171;SDS011;42052;41.634;-0.946;2023-02-16T11:40:29;10.05;;;7.70;;
56171;SDS011;42052;41.634;-0.946;2023-02-16T11:43:17;9.85;;;7.50;;
56171;SDS011;42052;41.634;-0.946;2023-02-16T11:46:06;10.60;;;7.88;;
56171;SDS011;42052;41.634;-0.946;2023-02-16T11:49:18;9.95;;;7.72;;
56171;SDS011;42052;41.634;-0.946;2023-02-16T11:58:20;5.78;;;4.70;;
56171;SDS011;42052;41.634;-0.946;2023-02-16T12:19:41;8.52;;;6.55;;
56171;SDS011;42052;41.634;-0.946;2023-02-16T12:31:18;8.73;;;7.05;;
56171;SDS011;42052;41.634;-0.946;2023-02-16T12:40:27;9.93;;;6.95;;
56171;SDS011;42052;41.634;-0.946;2023-02-16T12:49:31;9.55;;;6.60;;
56171;SDS011;42052;41.634;-0.946;2023-02-16T12:52:42;8.65;;;6.63;;
56171;SDS011;42052;41.634;-0.946;2023-02-16T12:58:33;9.57;;;6.97;;
56171;SDS011;42052;41.634;-0.946;2023-02-16T13:01:24;8.50;;;6.80;;
56171;SDS011;42052;41.634;-0.946;2023-02-16T13:04:25;9.05;;;6.95;;
56171;SDS011;42052;41.634;-0.946;2023-02-16T13:07:29;9.13;;;6.72;;
56171;SDS011;42052;41.634;-0.946;2023-02-16T13:13:15;10.40;;;7.10;;
56171;SDS011;42052;41.634;-0.946;2023-02-16T13:19:21;8.02;;;6.45;;
56171;SDS011;42052;41.634;-0.946;2023-02-16T13:25:44;8.88;;;6.60;;
56171;SDS011;42052;41.634;-0.946;2023-02-16T13:38:20;9.13;;;6.68;;
56171;SDS011;42052;41.634;-0.946;2023-02-16T13:41:33;9.20;;;6.65;;
56171;SDS011;42052;41.634;-0.946;2023-02-16T13:44:47;9.93;;;6.28;;
56171;SDS011;42052;41.634;-0.946;2023-02-16T13:47:40;8.70;;;6.03;;
56171;SDS011;42052;41.634;-0.946;2023-02-16T13:50:28;7.60;;;6.30;;
56171;SDS011;42052;41.634;-0.946;2023-02-16T13:53:17;10.35;;;6.63;;
56171;SDS011;42052;41.634;-0.946;2023-02-16T14:02:09;7.82;;;6.03;;
56171;SDS011;42052;41.634;-0.946;2023-02-16T14:07:42;7.82;;;6.18;;
56171;SDS011;42052;41.634;-0.946;2023-02-16T14:10:54;9.68;;;6.32;;
56171;SDS011;42052;41.634;-0.946;2023-02-16T14:16:28;8.52;;;6.18;;
56171;SDS011;42052;41.634;-0.946;2023-02-16T14:19:17;7.78;;;5.85;;
56171;SDS011;42052;41.634;-0.946;2023-02-16T14:22:10;8.93;;;6.35;;
56171;SDS011;42052;41.634;-0.946;2023-02-16T14:24:58;9.02;;;6.47;;
56171;SDS011;42052;41.634;-0.946;2023-02-16T14:27:51;7.55;;;6.07;;
56171;SDS011;42052;41.634;-0.946;2023-02-16T14:30:45;9.52;;;6.28;;
56171;SDS011;42052;41.634;-0.946;2023-02-16T14:36:26;7.70;;;5.97;;
56171;SDS011;42052;41.634;-0.946;2023-02-16T14:39:13;8.25;;;6.00;;
56171;SDS011;42052;41.634;-0.946;2023-02-16T14:42:26;8.10;;;6.15;;
56171;SDS011;42052;41.634;-0.946;2023-02-16T14:45:21;9.25;;;6.18;;
56171;SDS011;42052;41.634;-0.946;2023-02-16T14:48:44;7.63;;;6.03;;
56171;SDS011;42052;41.634;-0.946;2023-02-16T15:01:12;8.68;;;5.70;;
56171;SDS011;42052;41.634;-0.946;2023-02-16T15:04:03;8.18;;;5.63;;
56171;SDS011;42052;41.634;-0.946;2023-02-16T15:06:49;6.80;;;5.57;;
56171;SDS011;42052;41.634;-0.946;2023-02-16T15:09:40;7.65;;;5.15;;
56171;SDS011;42052;41.634;-0.946;2023-02-16T15:12:28;7.28;;;5.30;;
56171;SDS011;42052;41.634;-0.946;2023-02-16T15:15:18;6.97;;;5.50;;
56171;SDS011;42052;41.634;-0.946;2023-02-16T15:18:21;7.90;;;5.80;;
56171;SDS011;42052;41.634;-0.946;2023-02-16T15:21:20;7.95;;;5.60;;
56171;SDS011;42052;41.634;-0.946;2023-02-16T15:24:19;7.78;;;5.18;;
56171;SDS011;42052;41.634;-0.946;2023-02-16T15:27:18;5.93;;;4.85;;
56171;SDS011;42052;41.634;-0.946;2023-02-16T15:30:08;7.47;;;5.57;;
56171;SDS011;42052;41.634;-0.946;2023-02-16T15:33:09;6.30;;;5.10;;
56171;SDS011;42052;41.634;-0.946;2023-02-16T15:36:10;7.90;;;5.50;;
56171;SDS011;42052;41.634;-0.946;2023-02-16T15:38:59;6.47;;;5.07;;
56171;SDS011;42052;41.634;-0.946;2023-02-16T15:41:48;7.13;;;5.32;;
56171;SDS011;42052;41.634;-0.946;2023-02-16T15:44:35;6.70;;;5.15;;
56171;SDS011;42052;41.634;-0.946;2023-02-16T15:47:24;6.70;;;5.00;;
56171;SDS011;42052;41.634;-0.946;2023-02-16T15:50:11;6.57;;;5.03;;
56171;SDS011;42052;41.634;-0.946;2023-02-16T15:52:58;6.53;;;5.03;;
56171;SDS011;42052;41.634;-0.946;2023-02-16T15:55:44;6.72;;;4.95;;
56171;SDS011;42052;41.634;-0.946;2023-02-16T15:58:31;6.40;;;4.68;;
56171;SDS011;42052;41.634;-0.946;2023-02-16T16:01:39;6.60;;;4.95;;
56171;SDS011;42052;41.634;-0.946;2023-02-16T16:04:24;6.40;;;4.78;;
56171;SDS011;42052;41.634;-0.946;2023-02-16T16:07:13;5.80;;;4.80;;
56171;SDS011;42052;41.634;-0.946;2023-02-16T16:13:05;6.88;;;4.78;;
56171;SDS011;42052;41.634;-0.946;2023-02-16T16:15:58;7.38;;;5.03;;
56171;SDS011;42052;41.634;-0.946;2023-02-16T16:18:52;5.93;;;4.63;;
56171;SDS011;42052;41.634;-0.946;2023-02-16T16:21:45;5.85;;;4.45;;
56171;SDS011;42052;41.634;-0.946;2023-02-16T16:24:36;6.10;;;4.40;;
56171;SDS011;42052;41.634;-0.946;2023-02-16T16:27:33;6.95;;;4.50;;
56171;SDS011;42052;41.634;-0.946;2023-02-16T16:33:08;5.50;;;4.43;;
56171;SDS011;42052;41.634;-0.946;2023-02-16T16:35:56;5.45;;;4.18;;
56171;SDS011;42052;41.634;-0.946;2023-02-16T16:42:17;6.88;;;4.30;;
56171;SDS011;42052;41.634;-0.946;2023-02-16T16:54:31;6.07;;;4.20;;
56171;SDS011;42052;41.634;-0.946;2023-02-16T16:57:20;6.30;;;4.10;;
56171;SDS011;42052;41.634;-0.946;2023-02-16T17:00:07;5.32;;;4.13;;
56171;SDS011;42052;41.634;-0.946;2023-02-16T17:02:53;5.38;;;4.00;;
56171;SDS011;42052;41.634;-0.946;2023-02-16T17:05:39;5.68;;;4.13;;
56171;SDS011;42052;41.634;-0.946;2023-02-16T17:08:26;7.22;;;4.22;;
56171;SDS011;42052;41.634;-0.946;2023-02-16T17:11:14;5.57;;;4.20;;
56171;SDS011;42052;41.634;-0.946;2023-02-16T17:14:06;5.05;;;4.32;;
56171;SDS011;42052;41.634;-0.946;2023-02-16T17:16:53;6.00;;;4.28;;
56171;SDS011;42052;41.634;-0.946;2023-02-16T17:19:40;6.15;;;4.20;;
56171;SDS011;42052;41.634;-0.946;2023-02-16T17:22:26;4.75;;;3.90;;
56171;SDS011;42052;41.634;-0.946;2023-02-16T17:25:12;7.70;;;4.50;;
56171;SDS011;42052;41.634;-0.946;2023-02-16T17:27:59;4.00;;;3.47;;
56171;SDS011;42052;41.634;-0.946;2023-02-16T17:30:45;6.05;;;4.32;;
56171;SDS011;42052;41.634;-0.946;2023-02-16T17:33:31;6.90;;;4.00;;
56171;SDS011;42052;41.634;-0.946;2023-02-16T17:36:18;4.95;;;4.13;;
56171;SDS011;42052;41.634;-0.946;2023-02-16T17:39:05;5.07;;;3.90;;
56171;SDS011;42052;41.634;-0.946;2023-02-16T17:41:52;5.13;;;3.92;;
56171;SDS011;42052;41.634;-0.946;2023-02-16T17:44:38;6.82;;;4.18;;
56171;SDS011;42052;41.634;-0.946;2023-02-16T17:47:25;5.55;;;4.00;;
56171;SDS011;42052;41.634;-0.946;2023-02-16T17:50:12;5.28;;;4.07;;
56171;SDS011;42052;41.634;-0.946;2023-02-16T17:53:00;6.88;;;4.10;;
56171;SDS011;42052;41.634;-0.946;2023-02-16T17:55:46;6.25;;;4.10;;
56171;SDS011;42052;41.634;-0.946;2023-02-16T17:58:33;5.47;;;4.10;;
56171;SDS011;42052;41.634;-0.946;2023-02-16T18:01:20;6.13;;;4.57;;
56171;SDS011;42052;41.634;-0.946;2023-02-16T18:04:06;6.18;;;4.25;;
56171;SDS011;42052;41.634;-0.946;2023-02-16T18:06:52;6.80;;;4.55;;
56171;SDS011;42052;41.634;-0.946;2023-02-16T18:09:38;5.18;;;4.40;;
56171;SDS011;42052;41.634;-0.946;2023-02-16T18:12:25;6.25;;;4.18;;
56171;SDS011;42052;41.634;-0.946;2023-02-16T18:15:11;5.95;;;4.45;;
56171;SDS011;42052;41.634;-0.946;2023-02-16T18:17:57;6.88;;;4.30;;
56171;SDS011;42052;41.634;-0.946;2023-02-16T18:20:44;6.18;;;4.05;;
56171;SDS011;42052;41.634;-0.946;2023-02-16T18:23:30;5.75;;;4.30;;
56171;SDS011;42052;41.634;-0.946;2023-02-16T18:26:17;5.35;;;4.15;;
56171;SDS011;42052;41.634;-0.946;2023-02-16T18:29:03;6.22;;;4.53;;
56171;SDS011;42052;41.634;-0.946;2023-02-16T18:31:50;6.28;;;4.30;;
56171;SDS011;42052;41.634;-0.946;2023-02-16T18:34:37;5.80;;;4.60;;
56171;SDS011;42052;41.634;-0.946;2023-02-16T18:37:23;6.15;;;4.22;;
56171;SDS011;42052;41.634;-0.946;2023-02-16T18:40:10;5.68;;;4.60;;
56171;SDS011;42052;41.634;-0.946;2023-02-16T18:42:59;5.50;;;4.40;;
56171;SDS011;42052;41.634;-0.946;2023-02-16T18:45:45;6.07;;;4.28;;
56171;SDS011;42052;41.634;-0.946;2023-02-16T18:48:32;6.50;;;4.32;;
56171;SDS011;42052;41.634;-0.946;2023-02-16T18:51:18;6.18;;;4.65;;
56171;SDS011;42052;41.634;-0.946;2023-02-16T18:54:08;6.88;;;4.75;;
56171;SDS011;42052;41.634;-0.946;2023-02-16T18:56:54;6.35;;;5.00;;
56171;SDS011;42052;41.634;-0.946;2023-02-16T18:59:40;6.13;;;4.55;;
56171;SDS011;42052;41.634;-0.946;2023-02-16T19:02:26;6.57;;;4.38;;
56171;SDS011;42052;41.634;-0.946;2023-02-16T19:05:12;7.57;;;5.05;;
56171;SDS011;42052;41.634;-0.946;2023-02-16T19:07:58;6.63;;;4.72;;
56171;SDS011;42052;41.634;-0.946;2023-02-16T19:10:44;5.95;;;4.50;;
56171;SDS011;42052;41.634;-0.946;2023-02-16T19:13:31;6.47;;;4.70;;
56171;SDS011;42052;41.634;-0.946;2023-02-16T19:16:17;6.28;;;4.65;;
56171;SDS011;42052;41.634;-0.946;2023-02-16T19:19:03;6.43;;;4.60;;
56171;SDS011;42052;41.634;-0.946;2023-02-16T19:21:49;5.55;;;4.50;;
56171;SDS011;42052;41.634;-0.946;2023-02-16T19:24:35;6.97;;;4.85;;
56171;SDS011;42052;41.634;-0.946;2023-02-16T19:27:22;5.93;;;4.70;;
56171;SDS011;42052;41.634;-0.946;2023-02-16T19:30:09;6.93;;;4.75;;
56171;SDS011;42052;41.634;-0.946;2023-02-16T19:32:56;6.57;;;4.70;;
56171;SDS011;42052;41.634;-0.946;2023-02-16T19:35:42;6.45;;;4.72;;
56171;SDS011;42052;41.634;-0.946;2023-02-16T19:38:28;5.05;;;4.20;;
56171;SDS011;42052;41.634;-0.946;2023-02-16T19:44:05;22.30;;;9.55;;
56171;SDS011;42052;41.634;-0.946;2023-02-16T19:46:51;27.15;;;11.20;;
56171;SDS011;42052;41.634;-0.946;2023-02-16T19:49:38;26.95;;;10.70;;
56171;SDS011;42052;41.634;-0.946;2023-02-16T19:52:24;22.13;;;10.32;;
56171;SDS011;42052;41.634;-0.946;2023-02-16T19:55:10;18.27;;;9.25;;